Impacts TAF Board INFO
FOR SITUATIONAL AWARENESS. NOT TO BE USED FOR FLIGHT PLANNING PURPOSES.
IDs:

KLAX - Los Angeles Intl, CA, US

Issued at 2009 UTC 23 Jan 2017
Updated at 2051 UTC 23 Jan 2017
Potential Impact None Slight Moderate High
Time2000Z 23/21Z 23/22Z 23/23Z 24/00Z 24/01Z 24/02Z 24/03Z 24/04Z 24/05Z 24/06Z 24/07Z 24/08Z 24/09Z
Type OBS PRVL PRVL PRVL PRVL PRVL PRVL PRVL PRVL PRVL PRVL PRVL PRVL PRVL
VIS 4 4 4 4 >6 >6 >6 >6 >6 >6 >6 >6 >6 >6
CIG 36 35 35 35 50 50 50 50 50 50 50 50 50 100
Cover BKN BKN BKN BKN BKN BKN BKN BKN BKN BKN BKN BKN BKN BKN
FltCat MVFR MVFR MVFR MVFR VFR VFR VFR VFR VFR VFR VFR VFR VFR VFR
WX RA BR RA BR VCTS RA BR VCTS RA BR VCTS -SHRA -SHRA -SHRA VCSH VCSH VCSH VCSH VCSH VCSH VCSH
WDir 260 260 260 260 260 260 260 280 280 280 280 280 280 320
WSpd 13 13 13 13 15 15 15 12 12 12 12 12 12 8
WGst -- -- -- -- 20 20 20 -- -- -- -- -- -- --

Raw TAF
KLAX 232009Z 2320/2424 26013KT 4SM RA BR VCTS SCT005 BKN035CB BKN045
  FM240000 26015G20KT P6SM -SHRA BKN050
  FM240300 28012KT P6SM VCSH BKN050
  FM240900 32008KT P6SM VCSH BKN100
  FM241300 05005KT P6SM SCT020 BKN040
  FM242000 26010KT P6SM SCT040


Raw METAR
KLAX 232000Z COR 26013KT 4SM RA BR SCT005 BKN036 BKN046 10/07 A2989 RMK AO2 P0003 T01000072 $
KLAX 231953Z 24013G24KT 4SM R25R/5500VP6000FT VCTS RA BR SCT004 BKN041 OVC049 10/07 A2989 RMK AO2 RAB09 SLP120 VIS N-NE 1 P0004 T01000067 $
KLAX 231941Z 23014KT 7SM VCTS -RA FEW028 BKN050 OVC060 11/07 A2990 RMK AO2 RAB09 P0001 T01060067 $
KLAX 231853Z 26017KT 8SM FEW010 SCT033 BKN047 13/09 A2990 RMK AO2 PK WND 26029/1814 LTG DSNT E RAB14E35 SLP124 P0002 T01280089 $
KLAX 231753Z 26017KT 8SM SCT029 BKN060 BKN095 13/08 A2992 RMK AO2 SLP131 60002 T01280078 10133 20100 53014 $

METAR Board
Radar Display
Forecast Discussion

FOR SITUATIONAL AWARENESS. NOT TO BE USED FOR FLIGHT PLANNING PURPOSES.

Page loaded:  20:51 UTC  |   12:51 PM Pacific  |   01:51 PM Mountain  |   02:51 PM Central  |   03:51 PM Eastern

 

ADVISORIES

FORECASTS

FORECASTS

OBSERVATIONS

USER TOOLS

ABOUT US